sensor_id;sensor_type;location;lat;lon;timestamp;pressure;altitude;pressure_sealevel;temperature;humidity
49342;BME280;35210;41.606;-87.602;2023-03-23T00:01:22;99200.97;;;12.44;100.00
49342;BME280;35210;41.606;-87.602;2023-03-23T00:03:54;99189.28;;;12.47;100.00
49342;BME280;35210;41.606;-87.602;2023-03-23T00:06:25;99200.69;;;12.47;100.00
49342;BME280;35210;41.606;-87.602;2023-03-23T00:08:54;99198.03;;;12.47;100.00
49342;BME280;35210;41.606;-87.602;2023-03-23T00:11:26;99191.78;;;12.48;100.00
49342;BME280;35210;41.606;-87.602;2023-03-23T00:13:59;99203.91;;;12.51;100.00
49342;BME280;35210;41.606;-87.602;2023-03-23T00:16:30;99197.50;;;12.54;100.00
49342;BME280;35210;41.606;-87.602;2023-03-23T00:19:00;99190.53;;;12.53;100.00
49342;BME280;35210;41.606;-87.602;2023-03-23T00:21:31;99192.47;;;12.50;100.00
49342;BME280;35210;41.606;-87.602;2023-03-23T00:24:04;99197.50;;;12.54;100.00
49342;BME280;35210;41.606;-87.602;2023-03-23T00:26:34;99197.50;;;12.54;100.00
49342;BME280;35210;41.606;-87.602;2023-03-23T00:29:04;99197.22;;;12.57;100.00
49342;BME280;35210;41.606;-87.602;2023-03-23T00:31:33;99200.84;;;12.56;100.00
49342;BME280;35210;41.606;-87.602;2023-03-23T00:34:03;99202.25;;;12.60;100.00
49342;BME280;35210;41.606;-87.602;2023-03-23T00:36:32;99200.72;;;12.57;100.00
49342;BME280;35210;41.606;-87.602;2023-03-23T00:39:02;99187.47;;;12.57;100.00
49342;BME280;35210;41.606;-87.602;2023-03-23T00:41:30;99189.16;;;12.58;100.00
49342;BME280;35210;41.606;-87.602;2023-03-23T00:44:04;99201.69;;;12.56;100.00
49342;BME280;35210;41.606;-87.602;2023-03-23T00:46:34;99198.06;;;12.57;100.00
49342;BME280;35210;41.606;-87.602;2023-03-23T00:49:12;99197.50;;;12.54;100.00
49342;BME280;35210;41.606;-87.602;2023-03-23T00:51:40;99199.44;;;12.52;100.00
49342;BME280;35210;41.606;-87.602;2023-03-23T00:54:09;99201.41;;;12.49;100.00
49342;BME280;35210;41.606;-87.602;2023-03-23T00:56:38;99205.72;;;12.50;100.00
49342;BME280;35210;41.606;-87.602;2023-03-23T00:59:09;99216.75;;;12.56;100.00
49342;BME280;35210;41.606;-87.602;2023-03-23T01:01:37;99213.97;;;12.57;100.00
49342;BME280;35210;41.606;-87.602;2023-03-23T01:04:06;99206.16;;;12.56;100.00
49342;BME280;35210;41.606;-87.602;2023-03-23T01:06:36;99200.16;;;12.54;100.00
49342;BME280;35210;41.606;-87.602;2023-03-23T01:09:06;99193.88;;;12.55;100.00
49342;BME280;35210;41.606;-87.602;2023-03-23T01:11:36;99199.88;;;12.57;100.00
49342;BME280;35210;41.606;-87.602;2023-03-23T01:14:04;99200.59;;;12.59;100.00
49342;BME280;35210;41.606;-87.602;2023-03-23T01:16:34;99201.69;;;12.56;100.00
49342;BME280;35210;41.606;-87.602;2023-03-23T01:19:02;99190.25;;;12.56;100.00
49342;BME280;35210;41.606;-87.602;2023-03-23T01:21:30;99194.59;;;12.57;100.00
49342;BME280;35210;41.606;-87.602;2023-03-23T01:23:59;99200.84;;;12.56;100.00
49342;BME280;35210;41.606;-87.602;2023-03-23T01:26:30;99204.47;;;12.55;100.00
49342;BME280;35210;41.606;-87.602;2023-03-23T01:28:58;99202.81;;;12.54;100.00
49342;BME280;35210;41.606;-87.602;2023-03-23T01:31:27;99203.38;;;12.57;100.00
49342;BME280;35210;41.606;-87.602;2023-03-23T01:33:58;99207.56;;;12.60;100.00
49342;BME280;35210;41.606;-87.602;2023-03-23T01:36:28;99212.84;;;12.60;100.00
49342;BME280;35210;41.606;-87.602;2023-03-23T01:38:59;99195.00;;;12.62;100.00
49342;BME280;35210;41.606;-87.602;2023-03-23T01:41:29;99202.25;;;12.60;100.00
49342;BME280;35210;41.606;-87.602;2023-03-23T01:44:00;99212.84;;;12.60;100.00
49342;BME280;35210;41.606;-87.602;2023-03-23T01:46:31;99209.09;;;12.62;100.00
49342;BME280;35210;41.606;-87.602;2023-03-23T01:49:05;99215.38;;;12.61;100.00
49342;BME280;35210;41.606;-87.602;2023-03-23T01:51:39;99221.78;;;12.59;100.00
49342;BME280;35210;41.606;-87.602;2023-03-23T01:54:13;99214.81;;;12.58;100.00
49342;BME280;35210;41.606;-87.602;2023-03-23T01:56:54;99203.38;;;12.57;100.00
49342;BME280;35210;41.606;-87.602;2023-03-23T01:59:24;99212.03;;;12.59;100.00
49342;BME280;35210;41.606;-87.602;2023-03-23T02:01:53;99201.56;;;12.58;100.00
49342;BME280;35210;41.606;-87.602;2023-03-23T02:04:24;99196.97;;;12.60;100.00
49342;BME280;35210;41.606;-87.602;2023-03-23T02:06:54;99203.09;;;12.60;100.00
49342;BME280;35210;41.606;-87.602;2023-03-23T02:09:24;99197.78;;;12.60;100.00
49342;BME280;35210;41.606;-87.602;2023-03-23T02:11:53;99198.63;;;12.61;100.00
49342;BME280;35210;41.606;-87.602;2023-03-23T02:14:23;99221.50;;;12.62;100.00
49342;BME280;35210;41.606;-87.602;2023-03-23T02:16:57;99201.97;;;12.63;100.00
49342;BME280;35210;41.606;-87.602;2023-03-23T02:19:47;99208.78;;;12.65;100.00
49342;BME280;35210;41.606;-87.602;2023-03-23T02:22:48;99213.25;;;12.65;100.00
49342;BME280;35210;41.606;-87.602;2023-03-23T02:28:24;99192.75;;;12.67;100.00
49342;BME280;35210;41.606;-87.602;2023-03-23T02:31:11;99190.13;;;12.67;100.00
49342;BME280;35210;41.606;-87.602;2023-03-23T02:33:49;99195.69;;;12.64;100.00
49342;BME280;35210;41.606;-87.602;2023-03-23T02:36:25;99203.78;;;12.62;100.00
49342;BME280;35210;41.606;-87.602;2023-03-23T02:39:02;99220.81;;;12.60;100.00
49342;BME280;35210;41.606;-87.602;2023-03-23T02:41:36;99219.97;;;12.59;100.00
49342;BME280;35210;41.606;-87.602;2023-03-23T02:44:08;99212.03;;;12.59;100.00
49342;BME280;35210;41.606;-87.602;2023-03-23T02:46:39;99203.22;;;12.59;100.00
49342;BME280;35210;41.606;-87.602;2023-03-23T02:49:13;99213.13;;;12.57;100.00
49342;BME280;35210;41.606;-87.602;2023-03-23T02:51:44;99206.16;;;12.56;100.00
49342;BME280;35210;41.606;-87.602;2023-03-23T02:54:15;99206.03;;;12.57;100.00
49342;BME280;35210;41.606;-87.602;2023-03-23T02:56:47;99207.56;;;12.60;100.00
49342;BME280;35210;41.606;-87.602;2023-03-23T02:59:16;99203.94;;;12.61;100.00
49342;BME280;35210;41.606;-87.602;2023-03-23T03:02:07;99204.19;;;12.67;100.00
49342;BME280;35210;41.606;-87.602;2023-03-23T03:04:40;99205.31;;;12.65;100.00
49342;BME280;35210;41.606;-87.602;2023-03-23T03:07:36;99202.53;;;12.66;100.00
49342;BME280;35210;41.606;-87.602;2023-03-23T03:10:13;99205.44;;;12.63;100.00
49342;BME280;35210;41.606;-87.602;2023-03-23T03:12:48;99201.97;;;12.63;100.00
49342;BME280;35210;41.606;-87.602;2023-03-23T03:15:25;99210.91;;;12.62;100.00
49342;BME280;35210;41.606;-87.602;2023-03-23T03:18:00;99207.25;;;12.63;100.00
49342;BME280;35210;41.606;-87.602;2023-03-23T03:20:33;99201.69;;;12.66;100.00
49342;BME280;35210;41.606;-87.602;2023-03-23T03:23:05;99201.69;;;12.66;100.00
49342;BME280;35210;41.606;-87.602;2023-03-23T03:25:36;99201.41;;;12.69;100.00
49342;BME280;35210;41.606;-87.602;2023-03-23T03:28:07;99203.34;;;12.67;100.00
49342;BME280;35210;41.606;-87.602;2023-03-23T03:30:37;99224.56;;;12.67;100.00
49342;BME280;35210;41.606;-87.602;2023-03-23T03:33:10;99215.91;;;12.65;100.00
49342;BME280;35210;41.606;-87.602;2023-03-23T03:35:41;99216.59;;;12.67;100.00
49342;BME280;35210;41.606;-87.602;2023-03-23T03:38:11;99214.66;;;12.69;100.00
49342;BME280;35210;41.606;-87.602;2023-03-23T03:40:39;99196.94;;;12.69;100.00
49342;BME280;35210;41.606;-87.602;2023-03-23T03:43:07;99186.22;;;12.71;100.00
49342;BME280;35210;41.606;-87.602;2023-03-23T03:45:36;99189.97;;;12.68;100.00
49342;BME280;35210;41.606;-87.602;2023-03-23T03:48:04;99194.56;;;12.66;100.00
49342;BME280;35210;41.606;-87.602;2023-03-23T03:50:33;99178.81;;;12.65;100.00
49342;BME280;35210;41.606;-87.602;2023-03-23T03:53:02;99174.50;;;12.64;100.00
49342;BME280;35210;41.606;-87.602;2023-03-23T03:55:32;99185.09;;;12.64;100.00
49342;BME280;35210;41.606;-87.602;2023-03-23T03:58:01;99191.34;;;12.63;100.00
49342;BME280;35210;41.606;-87.602;2023-03-23T04:00:30;99170.72;;;12.66;100.00
49342;BME280;35210;41.606;-87.602;2023-03-23T04:02:58;99197.50;;;12.63;100.00
49342;BME280;35210;41.606;-87.602;2023-03-23T04:05:27;99196.97;;;12.60;100.00
49342;BME280;35210;41.606;-87.602;2023-03-23T04:07:56;99195.44;;;12.57;100.00
49342;BME280;35210;41.606;-87.602;2023-03-23T04:10:30;99172.28;;;12.59;100.00
49342;BME280;35210;41.606;-87.602;2023-03-23T04:12:59;99163.91;;;12.64;100.00
49342;BME280;35210;41.606;-87.602;2023-03-23T04:15:27;99154.84;;;12.66;100.00
49342;BME280;35210;41.606;-87.602;2023-03-23T04:17:55;99156.78;;;12.64;100.00
49342;BME280;35210;41.606;-87.602;2023-03-23T04:20:24;99162.91;;;12.65;100.00
49342;BME280;35210;41.606;-87.602;2023-03-23T04:22:52;99161.25;;;12.64;100.00
49342;BME280;35210;41.606;-87.602;2023-03-23T04:25:21;99161.81;;;12.58;100.00
49342;BME280;35210;41.606;-87.602;2023-03-23T04:27:52;99177.28;;;12.53;100.00
49342;BME280;35210;41.606;-87.602;2023-03-23T04:30:21;99195.84;;;12.53;100.00
49342;BME280;35210;41.606;-87.602;2023-03-23T04:32:51;99190.81;;;12.49;100.00
49342;BME280;35210;41.606;-87.602;2023-03-23T04:35:22;99184.09;;;12.45;100.00
49342;BME280;35210;41.606;-87.602;2023-03-23T04:37:50;99180.47;;;12.46;100.00
49342;BME280;35210;41.606;-87.602;2023-03-23T04:40:19;99174.50;;;12.44;100.00
49342;BME280;35210;41.606;-87.602;2023-03-23T04:42:48;99171.84;;;12.44;100.00
49342;BME280;35210;41.606;-87.602;2023-03-23T04:45:21;99166.97;;;12.49;100.00
49342;BME280;35210;41.606;-87.602;2023-03-23T04:47:51;99162.50;;;12.50;100.00
49342;BME280;35210;41.606;-87.602;2023-03-23T04:50:27;99155.94;;;12.44;100.00
49342;BME280;35210;41.606;-87.602;2023-03-23T04:52:57;99163.19;;;12.42;100.00
49342;BME280;35210;41.606;-87.602;2023-03-23T04:55:26;99160.81;;;12.39;100.00
49342;BME280;35210;41.606;-87.602;2023-03-23T04:57:54;99159.41;;;12.35;100.00
49342;BME280;35210;41.606;-87.602;2023-03-23T05:00:24;99164.16;;;12.32;100.00
49342;BME280;35210;41.606;-87.602;2023-03-23T05:02:52;99150.06;;;12.31;100.00
49342;BME280;35210;41.606;-87.602;2023-03-23T05:05:23;99112.72;;;12.34;100.00
49342;BME280;35210;41.606;-87.602;2023-03-23T05:07:53;99133.06;;;12.24;100.00
49342;BME280;35210;41.606;-87.602;2023-03-23T05:10:22;99069.38;;;12.26;100.00
49342;BME280;35210;41.606;-87.602;2023-03-23T05:12:50;99062.00;;;12.29;100.00
49342;BME280;35210;41.606;-87.602;2023-03-23T05:15:18;99146.66;;;12.10;99.97
49342;BME280;35210;41.606;-87.602;2023-03-23T05:17:47;99151.78;;;12.02;100.00
49342;BME280;35210;41.606;-87.602;2023-03-23T05:20:18;99147.72;;;11.98;100.00
49342;BME280;35210;41.606;-87.602;2023-03-23T05:22:49;99139.94;;;11.96;100.00
49342;BME280;35210;41.606;-87.602;2023-03-23T05:25:18;99150.50;;;11.96;100.00
49342;BME280;35210;41.606;-87.602;2023-03-23T05:27:46;99153.59;;;12.01;100.00
49342;BME280;35210;41.606;-87.602;2023-03-23T05:30:19;99154.44;;;12.02;100.00
49342;BME280;35210;41.606;-87.602;2023-03-23T05:32:49;99148.88;;;12.05;100.00
49342;BME280;35210;41.606;-87.602;2023-03-23T05:35:19;99170.75;;;12.07;100.00
49342;BME280;35210;41.606;-87.602;2023-03-23T05:37:47;99153.91;;;12.08;100.00
49342;BME280;35210;41.606;-87.602;2023-03-23T05:40:15;99143.31;;;12.08;100.00
49342;BME280;35210;41.606;-87.602;2023-03-23T05:42:44;99128.13;;;12.10;100.00
49342;BME280;35210;41.606;-87.602;2023-03-23T05:45:13;99118.81;;;12.15;100.00
49342;BME280;35210;41.606;-87.602;2023-03-23T05:47:42;99103.50;;;12.19;100.00
49342;BME280;35210;41.606;-87.602;2023-03-23T05:50:12;99101.81;;;12.18;100.00
49342;BME280;35210;41.606;-87.602;2023-03-23T05:52:40;99100.16;;;12.17;100.00
49342;BME280;35210;41.606;-87.602;2023-03-23T05:55:09;99100.41;;;12.14;100.00
49342;BME280;35210;41.606;-87.602;2023-03-23T05:57:38;99091.38;;;12.16;100.00
49342;BME280;35210;41.606;-87.602;2023-03-23T06:00:07;99082.47;;;12.17;100.00
49342;BME280;35210;41.606;-87.602;2023-03-23T06:02:47;99091.09;;;12.20;100.00
49342;BME280;35210;41.606;-87.602;2023-03-23T06:05:17;99100.00;;;12.18;100.00
49342;BME280;35210;41.606;-87.602;2023-03-23T06:07:45;99101.81;;;12.18;100.00
49342;BME280;35210;41.606;-87.602;2023-03-23T06:10:14;99094.72;;;12.18;100.00
49342;BME280;35210;41.606;-87.602;2023-03-23T06:12:42;99053.63;;;12.24;100.00
49342;BME280;35210;41.606;-87.602;2023-03-23T06:15:11;99079.13;;;12.15;99.96
49342;BME280;35210;41.606;-87.602;2023-03-23T06:17:39;99089.81;;;12.04;100.00
49342;BME280;35210;41.606;-87.602;2023-03-23T06:20:08;99099.56;;;12.04;100.00
49342;BME280;35210;41.606;-87.602;2023-03-23T06:22:38;99100.66;;;12.01;100.00
49342;BME280;35210;41.606;-87.602;2023-03-23T06:25:09;99086.31;;;12.04;100.00
49342;BME280;35210;41.606;-87.602;2023-03-23T06:27:37;99085.63;;;12.02;100.00
49342;BME280;35210;41.606;-87.602;2023-03-23T06:30:06;99066.13;;;12.03;100.00
49342;BME280;35210;41.606;-87.602;2023-03-23T06:32:35;99038.44;;;12.07;100.00
49342;BME280;35210;41.606;-87.602;2023-03-23T06:35:04;99028.53;;;12.09;100.00
49342;BME280;35210;41.606;-87.602;2023-03-23T06:37:38;99010.13;;;11.98;100.00
49342;BME280;35210;41.606;-87.602;2023-03-23T06:40:07;98978.09;;;12.01;100.00
49342;BME280;35210;41.606;-87.602;2023-03-23T06:42:36;98979.38;;;12.06;100.00
49342;BME280;35210;41.606;-87.602;2023-03-23T06:45:05;98993.69;;;11.94;100.00
49342;BME280;35210;41.606;-87.602;2023-03-23T06:47:34;98991.47;;;11.90;100.00
49342;BME280;35210;41.606;-87.602;2023-03-23T06:50:02;98979.38;;;11.87;100.00
49342;BME280;35210;41.606;-87.602;2023-03-23T06:52:30;98985.63;;;11.86;100.00
49342;BME280;35210;41.606;-87.602;2023-03-23T06:55:02;98990.63;;;11.79;100.00
49342;BME280;35210;41.606;-87.602;2023-03-23T06:57:30;98973.53;;;11.83;100.00
49342;BME280;35210;41.606;-87.602;2023-03-23T06:59:58;98963.91;;;11.82;100.00
49342;BME280;35210;41.606;-87.602;2023-03-23T07:02:27;98967.81;;;11.78;100.00
49342;BME280;35210;41.606;-87.602;2023-03-23T07:04:56;98974.91;;;11.78;100.00
49342;BME280;35210;41.606;-87.602;2023-03-23T07:07:24;98981.03;;;11.78;100.00
49342;BME280;35210;41.606;-87.602;2023-03-23T07:09:52;98991.34;;;11.81;100.00
49342;BME280;35210;41.606;-87.602;2023-03-23T07:12:22;99003.47;;;11.84;100.00
49342;BME280;35210;41.606;-87.602;2023-03-23T07:14:50;99010.94;;;11.89;100.00
49342;BME280;35210;41.606;-87.602;2023-03-23T07:17:18;99007.06;;;11.93;100.00
49342;BME280;35210;41.606;-87.602;2023-03-23T07:19:47;99005.81;;;11.97;100.00
49342;BME280;35210;41.606;-87.602;2023-03-23T07:22:15;98999.56;;;11.98;100.00
49342;BME280;35210;41.606;-87.602;2023-03-23T07:24:43;98991.63;;;11.98;100.00
49342;BME280;35210;41.606;-87.602;2023-03-23T07:27:11;99016.13;;;12.00;100.00
49342;BME280;35210;41.606;-87.602;2023-03-23T07:29:41;99009.03;;;12.00;100.00
49342;BME280;35210;41.606;-87.602;2023-03-23T07:32:11;99017.94;;;11.99;100.00
49342;BME280;35210;41.606;-87.602;2023-03-23T07:34:39;99030.19;;;12.00;100.00
49342;BME280;35210;41.606;-87.602;2023-03-23T07:37:09;99022.81;;;12.04;100.00
49342;BME280;35210;41.606;-87.602;2023-03-23T07:39:37;99006.66;;;12.07;100.00
49342;BME280;35210;41.606;-87.602;2023-03-23T07:42:06;98993.16;;;12.10;100.00
49342;BME280;35210;41.606;-87.602;2023-03-23T07:44:34;99002.34;;;12.06;100.00
49342;BME280;35210;41.606;-87.602;2023-03-23T07:47:04;98998.59;;;12.08;100.00
49342;BME280;35210;41.606;-87.602;2023-03-23T07:49:32;98979.94;;;12.10;100.00
49342;BME280;35210;41.606;-87.602;2023-03-23T07:52:00;98982.28;;;12.13;100.00
49342;BME280;35210;41.606;-87.602;2023-03-23T07:54:29;98975.34;;;12.12;100.00
49342;BME280;35210;41.606;-87.602;2023-03-23T07:56:57;98973.66;;;12.11;100.00
49342;BME280;35210;41.606;-87.602;2023-03-23T07:59:25;98975.59;;;12.09;100.00
49342;BME280;35210;41.606;-87.602;2023-03-23T08:01:53;98975.06;;;12.05;100.00
49342;BME280;35210;41.606;-87.602;2023-03-23T08:04:25;98976.84;;;12.05;100.00
49342;BME280;35210;41.606;-87.602;2023-03-23T08:06:53;98971.16;;;12.00;100.00
49342;BME280;35210;41.606;-87.602;2023-03-23T08:09:22;98964.44;;;11.96;100.00
49342;BME280;35210;41.606;-87.602;2023-03-23T08:11:50;98972.53;;;11.94;100.00
49342;BME280;35210;41.606;-87.602;2023-03-23T08:14:18;98962.09;;;11.93;100.00
49342;BME280;35210;41.606;-87.602;2023-03-23T08:16:46;98964.34;;;11.88;100.00
49342;BME280;35210;41.606;-87.602;2023-03-23T08:19:14;98946.78;;;11.87;100.00
49342;BME280;35210;41.606;-87.602;2023-03-23T08:21:44;98944.00;;;11.88;100.00
49342;BME280;35210;41.606;-87.602;2023-03-23T08:24:12;98939.97;;;11.84;100.00
49342;BME280;35210;41.606;-87.602;2023-03-23T08:26:40;98930.78;;;11.78;100.00
49342;BME280;35210;41.606;-87.602;2023-03-23T08:29:09;98917.97;;;11.83;99.64
49342;BME280;35210;41.606;-87.602;2023-03-23T08:31:38;98940.19;;;11.71;99.74
49342;BME280;35210;41.606;-87.602;2023-03-23T08:34:06;98977.50;;;11.68;100.00
49342;BME280;35210;41.606;-87.602;2023-03-23T08:36:35;98994.34;;;11.67;100.00
49342;BME280;35210;41.606;-87.602;2023-03-23T08:39:05;98949.09;;;11.61;100.00
49342;BME280;35210;41.606;-87.602;2023-03-23T08:41:34;98902.19;;;11.63;99.52
49342;BME280;35210;41.606;-87.602;2023-03-23T08:44:02;98914.28;;;11.56;100.00
49342;BME280;35210;41.606;-87.602;2023-03-23T08:46:31;98907.31;;;11.55;100.00
49342;BME280;35210;41.606;-87.602;2023-03-23T08:48:59;98906.75;;;11.41;100.00
49342;BME280;35210;41.606;-87.602;2023-03-23T08:51:27;98919.28;;;11.49;100.00
49342;BME280;35210;41.606;-87.602;2023-03-23T08:53:55;98928.47;;;11.45;100.00
49342;BME280;35210;41.606;-87.602;2023-03-23T08:56:25;98924.00;;;11.45;100.00
49342;BME280;35210;41.606;-87.602;2023-03-23T08:58:53;98932.50;;;11.49;100.00
49342;BME280;35210;41.606;-87.602;2023-03-23T09:01:22;98941.81;;;11.43;100.00
49342;BME280;35210;41.606;-87.602;2023-03-23T09:03:50;98957.09;;;11.40;100.00
49342;BME280;35210;41.606;-87.602;2023-03-23T09:06:18;98964.06;;;11.41;100.00
49342;BME280;35210;41.606;-87.602;2023-03-23T09:08:46;98972.00;;;11.41;100.00
49342;BME280;35210;41.606;-87.602;2023-03-23T09:11:14;98993.00;;;11.42;100.00
49342;BME280;35210;41.606;-87.602;2023-03-23T09:13:44;99016.09;;;11.40;100.00
49342;BME280;35210;41.606;-87.602;2023-03-23T09:16:12;98998.88;;;11.46;100.00
49342;BME280;35210;41.606;-87.602;2023-03-23T09:18:40;99002.75;;;11.42;100.00
49342;BME280;35210;41.606;-87.602;2023-03-23T09:21:08;98981.59;;;11.42;100.00
49342;BME280;35210;41.606;-87.602;2023-03-23T09:23:36;98978.53;;;11.37;100.00
49342;BME280;35210;41.606;-87.602;2023-03-23T09:26:06;99000.06;;;11.32;100.00
49342;BME280;35210;41.606;-87.602;2023-03-23T09:28:34;99019.94;;;11.27;100.00
49342;BME280;35210;41.606;-87.602;2023-03-23T09:31:04;99009.38;;;11.27;100.00
49342;BME280;35210;41.606;-87.602;2023-03-23T09:33:32;98982.53;;;11.31;100.00
49342;BME280;35210;41.606;-87.602;2023-03-23T09:36:01;98982.63;;;11.20;100.00
49342;BME280;35210;41.606;-87.602;2023-03-23T09:38:31;98969.16;;;11.23;100.00
49342;BME280;35210;41.606;-87.602;2023-03-23T09:41:07;98967.06;;;11.27;100.00
49342;BME280;35210;41.606;-87.602;2023-03-23T09:43:58;98966.63;;;11.22;99.69
49342;BME280;35210;41.606;-87.602;2023-03-23T09:46:42;98975.66;;;11.09;100.00
49342;BME280;35210;41.606;-87.602;2023-03-23T09:49:17;98997.59;;;11.00;100.00
49342;BME280;35210;41.606;-87.602;2023-03-23T09:51:51;99006.78;;;11.06;100.00
49342;BME280;35210;41.606;-87.602;2023-03-23T09:54:23;99004.84;;;11.08;100.00
49342;BME280;35210;41.606;-87.602;2023-03-23T09:56:53;99028.19;;;11.03;100.00
49342;BME280;35210;41.606;-87.602;2023-03-23T09:59:27;99106.09;;;11.08;100.00
49342;BME280;35210;41.606;-87.602;2023-03-23T10:02:09;99156.22;;;11.19;100.00
49342;BME280;35210;41.606;-87.602;2023-03-23T10:04:44;99120.00;;;11.10;100.00
49342;BME280;35210;41.606;-87.602;2023-03-23T10:07:14;99090.50;;;11.05;100.00
49342;BME280;35210;41.606;-87.602;2023-03-23T10:09:46;99117.75;;;11.06;100.00
49342;BME280;35210;41.606;-87.602;2023-03-23T10:12:21;99109.97;;;11.04;100.00
49342;BME280;35210;41.606;-87.602;2023-03-23T10:15:03;99050.16;;;11.03;100.00
49342;BME280;35210;41.606;-87.602;2023-03-23T10:17:37;99079.03;;;10.95;100.00
49342;BME280;35210;41.606;-87.602;2023-03-23T10:20:21;99062.84;;;10.89;100.00
49342;BME280;35210;41.606;-87.602;2023-03-23T10:23:01;99053.38;;;10.86;100.00
49342;BME280;35210;41.606;-87.602;2023-03-23T10:25:34;99048.94;;;10.86;100.00
49342;BME280;35210;41.606;-87.602;2023-03-23T10:28:06;99086.75;;;10.87;100.00
49342;BME280;35210;41.606;-87.602;2023-03-23T10:30:40;99066.47;;;10.88;100.00
49342;BME280;35210;41.606;-87.602;2023-03-23T10:33:15;99099.38;;;10.83;100.00
49342;BME280;35210;41.606;-87.602;2023-03-23T10:35:50;99117.28;;;10.80;100.00
49342;BME280;35210;41.606;-87.602;2023-03-23T10:38:23;99107.69;;;10.79;100.00
49342;BME280;35210;41.606;-87.602;2023-03-23T10:40:55;99137.19;;;10.84;100.00
49342;BME280;35210;41.606;-87.602;2023-03-23T10:43:24;99120.13;;;10.24;91.11
49342;BME280;35210;41.606;-87.602;2023-03-23T10:45:57;99108.19;;;9.75;87.67
49342;BME280;35210;41.606;-87.602;2023-03-23T10:48:31;99143.19;;;9.44;88.64
49342;BME280;35210;41.606;-87.602;2023-03-23T10:51:03;99163.19;;;8.89;88.27
49342;BME280;35210;41.606;-87.602;2023-03-23T10:53:34;99193.44;;;8.60;88.14
49342;BME280;35210;41.606;-87.602;2023-03-23T10:56:04;99177.28;;;8.40;89.29
49342;BME280;35210;41.606;-87.602;2023-03-23T10:58:34;99216.13;;;8.24;89.50
49342;BME280;35210;41.606;-87.602;2023-03-23T11:01:04;99211.25;;;8.07;89.46
49342;BME280;35210;41.606;-87.602;2023-03-23T11:03:44;99236.72;;;7.94;89.68
49342;BME280;35210;41.606;-87.602;2023-03-23T11:06:20;99250.50;;;7.84;90.20
49342;BME280;35210;41.606;-87.602;2023-03-23T11:08:52;99232.50;;;7.66;89.82
49342;BME280;35210;41.606;-87.602;2023-03-23T11:11:25;99234.16;;;7.54;90.57
49342;BME280;35210;41.606;-87.602;2023-03-23T11:14:00;99237.66;;;7.42;90.72
49342;BME280;35210;41.606;-87.602;2023-03-23T11:16:30;99251.09;;;7.37;90.86
49342;BME280;35210;41.606;-87.602;2023-03-23T11:19:12;99254.53;;;7.25;91.29
49342;BME280;35210;41.606;-87.602;2023-03-23T11:21:41;99230.13;;;7.10;91.35
49342;BME280;35210;41.606;-87.602;2023-03-23T11:24:14;99232.75;;;7.10;91.43
49342;BME280;35210;41.606;-87.602;2023-03-23T11:26:44;99241.69;;;7.08;91.62
49342;BME280;35210;41.606;-87.602;2023-03-23T11:29:15;99285.84;;;7.01;91.89
49342;BME280;35210;41.606;-87.602;2023-03-23T11:31:46;99302.19;;;6.92;91.69
49342;BME280;35210;41.606;-87.602;2023-03-23T11:34:20;99319.63;;;6.93;91.73
49342;BME280;35210;41.606;-87.602;2023-03-23T11:36:52;99290.41;;;6.85;90.95
49342;BME280;35210;41.606;-87.602;2023-03-23T11:39:25;99293.41;;;6.79;90.80
49342;BME280;35210;41.606;-87.602;2023-03-23T11:41:54;99318.06;;;6.76;91.17
49342;BME280;35210;41.606;-87.602;2023-03-23T11:44:23;99286.75;;;6.61;90.81
49342;BME280;35210;41.606;-87.602;2023-03-23T11:47:00;99256.03;;;6.48;91.79
49342;BME280;35210;41.606;-87.602;2023-03-23T11:49:45;99266.44;;;6.36;92.85
49342;BME280;35210;41.606;-87.602;2023-03-23T11:52:23;99263.75;;;6.23;93.04
49342;BME280;35210;41.606;-87.602;2023-03-23T11:54:57;99279.84;;;6.17;93.95
49342;BME280;35210;41.606;-87.602;2023-03-23T11:57:28;99288.84;;;6.13;94.73
49342;BME280;35210;41.606;-87.602;2023-03-23T11:59:57;99291.09;;;6.19;94.82
49342;BME280;35210;41.606;-87.602;2023-03-23T12:02:39;99295.13;;;6.24;94.16
49342;BME280;35210;41.606;-87.602;2023-03-23T12:05:32;99275.16;;;6.22;93.98
49342;BME280;35210;41.606;-87.602;2023-03-23T12:08:24;99260.09;;;6.25;93.61
49342;BME280;35210;41.606;-87.602;2023-03-23T12:11:01;99221.31;;;6.31;93.51
49342;BME280;35210;41.606;-87.602;2023-03-23T12:13:52;99247.06;;;6.24;93.36
49342;BME280;35210;41.606;-87.602;2023-03-23T12:16:33;99274.78;;;6.28;93.91
49342;BME280;35210;41.606;-87.602;2023-03-23T12:19:11;99313.19;;;6.29;93.54
49342;BME280;35210;41.606;-87.602;2023-03-23T12:21:54;99294.75;;;6.31;93.07
49342;BME280;35210;41.606;-87.602;2023-03-23T12:24:41;99274.59;;;6.31;92.72
49342;BME280;35210;41.606;-87.602;2023-03-23T12:27:16;99252.13;;;6.27;91.62
49342;BME280;35210;41.606;-87.602;2023-03-23T12:30:00;99245.38;;;6.23;92.18
49342;BME280;35210;41.606;-87.602;2023-03-23T12:32:39;99260.94;;;6.26;92.10
49342;BME280;35210;41.606;-87.602;2023-03-23T12:35:30;99278.16;;;6.16;90.75
49342;BME280;35210;41.606;-87.602;2023-03-23T12:38:16;99276.00;;;6.08;90.24
49342;BME280;35210;41.606;-87.602;2023-03-23T12:40:58;99271.34;;;6.13;90.25
49342;BME280;35210;41.606;-87.602;2023-03-23T12:43:36;99261.88;;;6.11;90.88
49342;BME280;35210;41.606;-87.602;2023-03-23T12:46:27;99281.91;;;6.12;90.84
49342;BME280;35210;41.606;-87.602;2023-03-23T12:49:03;99294.28;;;6.10;90.69
49342;BME280;35210;41.606;-87.602;2023-03-23T12:51:38;99289.03;;;6.10;91.49
49342;BME280;35210;41.606;-87.602;2023-03-23T12:54:18;99289.41;;;6.04;92.10
49342;BME280;35210;41.606;-87.602;2023-03-23T12:56:51;99291.84;;;6.07;92.70
49342;BME280;35210;41.606;-87.602;2023-03-23T12:59:25;99324.03;;;6.09;92.84